Time;durP1;ratioP1;P1;durP2;ratioP2;P2;SDS_P1;SDS_P2;PMS_P1;PMS_P2;Temp;Humidity;BMP_temperature;BMP_pressure;BME280_temperature;BME280_humidity;BME280_pressure;Samples;Min_cycle;Max_cycle;Signal;HPM_P1;HPM_P2
2022/01/18 04:00:21;;;;;;;54.75;10.98;;;4.90;99.90;;;;;;6065238;23;20444;31
2022/01/18 04:02:48;;;;;;;76.05;17.38;;;4.90;99.90;;;;;;4973981;28;20097;-79
2022/01/18 04:05:14;;;;;;;60.60;14.80;;;5.00;99.90;;;;;;4976802;28;20442;-77
2022/01/18 04:07:40;;;;;;;86.82;16.83;;;5.00;99.90;;;;;;4976455;28;20129;-78
2022/01/18 04:10:07;;;;;;;73.60;16.38;;;5.00;99.90;;;;;;4960368;28;20042;-80
2022/01/18 04:12:34;;;;;;;60.35;14.52;;;5.00;99.90;;;;;;4957373;28;20047;-78
2022/01/18 04:15:02;;;;;;;47.97;12.18;;;5.10;99.90;;;;;;4957396;28;20364;-77
2022/01/18 04:28:51;;;;;;;44.53;10.20;;;5.20;99.90;;;;;;4958146;29;20126;-78
2022/01/18 04:30:58;;;;;;;41.90;9.07;;;5.20;99.90;;;;;;4948906;28;20079;-77
2022/01/18 04:33:23;;;;;;;49.80;10.32;;;5.20;99.90;;;;;;4956733;28;20509;-80
2022/01/18 04:35:49;;;;;;;44.35;9.82;;;5.30;99.90;;;;;;4957075;29;20035;-80
2022/01/18 04:38:15;;;;;;;39.60;9.90;;;5.20;99.90;;;;;;4957631;29;20487;-80
2022/01/18 04:40:44;;;;;;;41.90;9.70;;;5.30;99.90;;;;;;4956613;28;20043;-79
2022/01/18 04:43:28;;;;;;;48.13;9.32;;;5.30;99.90;;;;;;4956627;29;20043;-78
2022/01/18 04:48:39;;;;;;;36.33;8.88;;;5.30;99.90;;;;;;4956537;29;20054;-78
2022/01/18 04:51:11;;;;;;;44.88;9.02;;;5.30;99.90;;;;;;4940378;29;20079;-78
2022/01/18 04:53:47;;;;;;;42.33;8.70;;;5.30;99.90;;;;;;4956599;29;20435;-78
2022/01/18 04:56:16;;;;;;;49.22;8.55;;;5.40;99.90;;;;;;4956451;29;20088;-79
2022/01/18 04:58:43;;;;;;;35.20;8.20;;;5.40;99.90;;;;;;4940688;29;20050;-80
2022/01/18 05:01:10;;;;;;;37.40;8.60;;;5.40;99.90;;;;;;4956101;28;20534;-80
2022/01/18 05:03:36;;;;;;;38.38;8.52;;;5.40;99.90;;;;;;4956382;29;20499;-80
2022/01/18 05:06:08;;;;;;;42.17;7.82;;;5.40;99.90;;;;;;4956150;29;20050;-80
2022/01/18 05:08:36;;;;;;;35.13;8.95;;;5.40;99.90;;;;;;4955890;28;20086;-78
2022/01/18 05:11:02;;;;;;;37.33;8.85;;;5.50;99.90;;;;;;4956120;28;20126;-79
2022/01/18 05:16:20;;;;;;;31.73;7.82;;;5.40;99.90;;;;;;4956429;29;20051;-78
2022/01/18 05:24:16;;;;;;;41.45;9.40;;;5.50;99.90;;;;;;4955857;28;20051;-78
2022/01/18 05:26:41;;;;;;;41.28;8.85;;;5.50;99.90;;;;;;4957101;29;20086;-79
2022/01/18 05:29:07;;;;;;;34.88;7.93;;;5.50;99.90;;;;;;4956050;29;20511;-79
2022/01/18 05:31:32;;;;;;;34.22;8.77;;;5.50;99.90;;;;;;4955928;28;20047;-79
2022/01/18 05:33:58;;;;;;;36.30;8.25;;;5.50;99.90;;;;;;4956163;29;20480;-79
2022/01/18 05:36:23;;;;;;;45.72;10.25;;;5.50;99.90;;;;;;4939857;29;20039;-79
2022/01/18 05:38:49;;;;;;;32.15;7.95;;;5.50;99.90;;;;;;4955837;28;20039;-78
2022/01/18 05:41:16;;;;;;;41.70;9.45;;;5.50;99.90;;;;;;4955679;28;20059;-79
2022/01/18 05:43:41;;;;;;;51.95;8.68;;;5.50;99.90;;;;;;4955634;28;20054;-79
2022/01/18 05:46:07;;;;;;;32.42;7.45;;;5.50;99.90;;;;;;4955539;29;20047;-80
2022/01/18 05:48:33;;;;;;;43.20;8.73;;;5.50;99.90;;;;;;4955543;29;20053;-80
2022/01/18 05:50:59;;;;;;;44.67;9.68;;;5.50;99.90;;;;;;4939576;29;20189;-79
2022/01/18 05:53:34;;;;;;;32.95;8.25;;;5.50;99.90;;;;;;4955727;28;20437;-79
2022/01/18 05:56:01;;;;;;;39.47;8.80;;;5.50;99.90;;;;;;4955596;29;20082;-79
2022/01/18 05:58:27;;;;;;;37.45;7.93;;;5.50;99.90;;;;;;4955448;29;20043;-79
2022/01/18 06:00:54;;;;;;;35.03;8.57;;;5.50;99.90;;;;;;4955473;28;20070;-80
2022/01/18 06:03:27;;;;;;;36.97;9.52;;;5.50;99.90;;;;;;4955401;28;20051;-79
2022/01/18 06:08:41;;;;;;;37.22;8.60;;;5.50;99.90;;;;;;4955343;29;20047;-79
2022/01/18 06:11:07;;;;;;;41.33;9.07;;;5.60;99.90;;;;;;4955068;28;20050;-79
2022/01/18 06:13:34;;;;;;;42.10;9.10;;;5.60;99.90;;;;;;4939081;29;20163;-78
2022/01/18 06:15:59;;;;;;;37.30;8.23;;;5.50;99.90;;;;;;4955059;29;20121;-79
2022/01/18 06:18:25;;;;;;;40.80;10.60;;;5.60;99.90;;;;;;4955013;29;20074;-79
2022/01/18 06:20:51;;;;;;;39.10;13.43;;;5.50;99.90;;;;;;4954289;28;20043;-78
2022/01/18 06:23:17;;;;;;;52.08;16.90;;;5.50;99.90;;;;;;4954845;28;20043;-78
2022/01/18 06:25:43;;;;;;;53.17;16.48;;;5.60;99.90;;;;;;4956428;28;20109;-80
2022/01/18 06:28:08;;;;;;;49.67;14.13;;;5.60;99.90;;;;;;4954955;29;20039;-80
2022/01/18 06:30:34;;;;;;;38.83;9.93;;;5.60;99.90;;;;;;4954585;28;20122;-77
2022/01/18 06:33:00;;;;;;;39.22;10.48;;;5.60;99.90;;;;;;4954674;29;20046;-77
2022/01/18 06:35:26;;;;;;;32.03;8.25;;;5.60;99.90;;;;;;4954627;28;20360;-80
2022/01/18 06:37:51;;;;;;;41.60;8.30;;;5.60;99.90;;;;;;4954664;29;20129;-79
2022/01/18 06:40:17;;;;;;;38.10;8.80;;;5.60;99.90;;;;;;4938889;28;20194;-77
2022/01/18 06:42:43;;;;;;;36.53;8.35;;;5.60;99.90;;;;;;4956313;29;20039;-79
2022/01/18 06:45:10;;;;;;;38.65;10.13;;;5.60;99.90;;;;;;4954586;29;20432;-78
2022/01/18 06:47:37;;;;;;;30.73;7.60;;;5.60;99.90;;;;;;4956176;28;20043;-78
2022/01/18 06:50:05;;;;;;;34.50;11.75;;;5.50;99.90;;;;;;4954686;29;20547;-78
2022/01/18 06:52:31;;;;;;;38.45;8.40;;;5.50;99.90;;;;;;4938576;29;20102;-78
2022/01/18 06:54:56;;;;;;;30.38;8.13;;;5.50;99.90;;;;;;4954560;29;20431;-80
2022/01/18 06:57:23;;;;;;;42.25;9.02;;;5.50;99.90;;;;;;4954222;29;20066;-81
2022/01/18 06:59:48;;;;;;;25.40;7.43;;;5.50;99.90;;;;;;4954572;28;20401;-80
2022/01/18 07:02:14;;;;;;;40.45;8.20;;;5.40;99.90;;;;;;4954057;28;20126;-77
2022/01/18 07:04:40;;;;;;;41.83;9.18;;;5.50;99.90;;;;;;4954283;29;20507;-79
2022/01/18 07:07:05;;;;;;;40.92;9.30;;;5.50;99.90;;;;;;4954180;29;20043;-79
2022/01/18 07:09:32;;;;;;;40.75;9.63;;;5.50;99.90;;;;;;4954116;28;20071;-77
2022/01/18 07:12:00;;;;;;;32.40;8.68;;;5.50;99.90;;;;;;4938017;29;20081;-78
2022/01/18 07:14:26;;;;;;;37.22;10.00;;;5.40;99.90;;;;;;4954115;29;20553;-80
2022/01/18 07:16:52;;;;;;;39.72;9.48;;;5.50;99.90;;;;;;4955739;28;20388;-78
2022/01/18 07:19:18;;;;;;;44.63;9.98;;;5.40;99.90;;;;;;4954005;29;20087;-80
2022/01/18 07:21:44;;;;;;;44.78;9.52;;;5.40;99.90;;;;;;4954001;28;20039;-76
2022/01/18 07:24:35;;;;;;;35.35;10.25;;;5.40;99.90;;;;;;4953890;28;20043;-78
2022/01/18 07:27:01;;;;;;;41.65;10.18;;;5.40;99.90;;;;;;4953893;28;20043;-78
2022/01/18 07:29:26;;;;;;;38.33;9.43;;;5.40;99.90;;;;;;4955242;28;20357;-78
2022/01/18 07:31:53;;;;;;;36.75;8.55;;;5.40;99.90;;;;;;4969941;28;20054;-78
2022/01/18 07:34:22;;;;;;;32.90;8.80;;;5.40;99.90;;;;;;4954176;29;20047;-79
2022/01/18 07:36:48;;;;;;;46.83;9.48;;;5.40;99.90;;;;;;4954393;29;20595;-80
2022/01/18 07:39:13;;;;;;;37.15;8.45;;;5.40;99.90;;;;;;4953601;28;20148;-80
2022/01/18 07:41:39;;;;;;;33.45;8.48;;;5.40;99.90;;;;;;4937796;29;20039;-79
2022/01/18 07:44:05;;;;;;;32.03;9.18;;;5.40;99.90;;;;;;4953984;28;20084;-79
2022/01/18 07:46:31;;;;;;;28.65;8.30;;;5.40;99.90;;;;;;4955179;29;20040;-77
2022/01/18 07:48:57;;;;;;;28.08;7.72;;;5.40;99.90;;;;;;4953509;28;20039;-78
2022/01/18 07:51:22;;;;;;;24.02;8.10;;;5.40;99.90;;;;;;4953485;28;20077;-79
2022/01/18 07:53:48;;;;;;;41.35;9.15;;;5.40;99.90;;;;;;4953608;28;20040;-79
2022/01/18 07:56:13;;;;;;;42.50;9.63;;;5.40;99.90;;;;;;4937708;29;20071;-77
2022/01/18 07:58:39;;;;;;;37.03;8.70;;;5.40;99.90;;;;;;4953699;29;20047;-77
2022/01/18 08:01:05;;;;;;;37.10;9.15;;;5.40;99.90;;;;;;4953288;28;20061;-77
2022/01/18 08:03:31;;;;;;;35.72;8.90;;;5.40;99.90;;;;;;4953267;29;20055;-79
2022/01/18 08:05:57;;;;;;;36.05;9.13;;;5.40;99.90;;;;;;4953399;29;20479;-77
2022/01/18 08:08:22;;;;;;;32.25;8.77;;;5.40;99.90;;;;;;4954569;29;20526;-78
2022/01/18 08:10:48;;;;;;;37.03;9.75;;;5.40;99.90;;;;;;4953062;28;20079;-77
2022/01/18 08:13:14;;;;;;;32.35;8.52;;;5.40;99.90;;;;;;4954887;29;20047;-78
2022/01/18 08:15:42;;;;;;;35.22;9.02;;;5.50;99.90;;;;;;4953510;29;20043;-79
2022/01/18 08:18:12;;;;;;;36.45;8.80;;;5.50;99.90;;;;;;4953214;28;20043;-79
2022/01/18 08:20:37;;;;;;;47.20;11.18;;;5.50;99.90;;;;;;4953036;28;20043;-78
2022/01/18 08:23:03;;;;;;;34.75;8.75;;;5.50;99.90;;;;;;4953396;28;20047;-78
2022/01/18 08:25:30;;;;;;;48.40;10.57;;;5.50;99.90;;;;;;4953076;29;20042;-78
2022/01/18 08:27:57;;;;;;;36.58;9.75;;;5.50;99.90;;;;;;4937303;29;20062;-80
2022/01/18 08:30:23;;;;;;;34.25;9.85;;;5.50;99.90;;;;;;4969602;28;20039;-78
2022/01/18 08:32:50;;;;;;;38.78;8.90;;;5.50;99.90;;;;;;4953009;29;20501;-82
2022/01/18 08:35:17;;;;;;;33.80;7.82;;;5.60;99.90;;;;;;4953310;29;20522;-79
2022/01/18 08:37:43;;;;;;;38.17;9.10;;;5.60;99.90;;;;;;4953198;29;20118;-80
2022/01/18 08:40:09;;;;;;;35.60;8.30;;;5.60;99.90;;;;;;4953235;29;20526;-79
2022/01/18 08:42:35;;;;;;;34.63;8.55;;;5.60;99.90;;;;;;4952247;28;20155;-80
2022/01/18 08:45:01;;;;;;;32.78;7.97;;;5.60;99.90;;;;;;4954772;28;20203;-79
2022/01/18 08:47:27;;;;;;;27.35;7.82;;;5.60;99.90;;;;;;4955663;29;20054;-79
2022/01/18 08:49:53;;;;;;;29.83;7.82;;;5.70;99.90;;;;;;4955352;29;20043;-79
2022/01/18 08:52:19;;;;;;;28.85;7.38;;;5.70;99.90;;;;;;4971489;28;20047;-80
2022/01/18 08:54:45;;;;;;;30.13;6.32;;;5.70;99.90;;;;;;4955325;29;20091;-79
2022/01/18 08:57:12;;;;;;;21.92;7.30;;;5.80;99.90;;;;;;4971409;28;20035;-79
2022/01/18 08:59:39;;;;;;;26.92;6.43;;;5.80;99.90;;;;;;4955154;29;20043;-79
2022/01/18 09:02:08;;;;;;;21.75;6.50;;;5.80;99.90;;;;;;4954984;28;20047;-79
2022/01/18 09:04:34;;;;;;;26.10;6.82;;;5.80;99.90;;;;;;4955431;29;20482;-77
2022/01/18 09:07:06;;;;;;;22.58;6.43;;;5.90;99.90;;;;;;4954963;29;20050;-78
2022/01/18 09:09:31;;;;;;;18.17;5.45;;;5.90;99.90;;;;;;4939022;29;20043;-79
2022/01/18 09:11:57;;;;;;;22.65;5.70;;;5.90;99.90;;;;;;4955075;28;20400;-77
2022/01/18 09:14:23;;;;;;;26.15;5.30;;;5.90;99.90;;;;;;4954919;28;20038;-79
2022/01/18 09:16:48;;;;;;;19.38;4.72;;;6.00;99.90;;;;;;4955363;29;20130;-79
2022/01/18 09:19:15;;;;;;;14.73;3.83;;;6.00;99.90;;;;;;4954876;29;20035;-80
2022/01/18 09:21:43;;;;;;;16.08;3.63;;;6.00;99.90;;;;;;4954876;28;20044;-78
2022/01/18 09:24:08;;;;;;;18.38;4.40;;;6.00;99.90;;;;;;4955116;29;20043;-78
2022/01/18 09:26:34;;;;;;;16.77;4.22;;;6.10;99.90;;;;;;4954799;29;20039;-80
2022/01/18 09:29:00;;;;;;;16.95;4.18;;;6.10;99.90;;;;;;4955078;28;20167;-78
2022/01/18 09:31:26;;;;;;;13.57;3.40;;;6.10;99.90;;;;;;4955876;28;20027;-79
2022/01/18 09:33:51;;;;;;;12.23;3.80;;;6.10;99.90;;;;;;4954684;28;20487;-77
2022/01/18 09:36:17;;;;;;;15.75;3.47;;;6.10;99.90;;;;;;4954703;29;20551;-78
2022/01/18 09:38:42;;;;;;;10.88;3.38;;;6.00;99.90;;;;;;4954536;29;20039;-78
2022/01/18 09:41:11;;;;;;;8.93;3.00;;;6.10;99.90;;;;;;4954484;28;20134;-79
2022/01/18 09:43:38;;;;;;;19.48;4.07;;;6.10;99.90;;;;;;4954643;29;20102;-79
2022/01/18 09:46:05;;;;;;;11.00;3.15;;;6.10;99.90;;;;;;4956543;29;20047;-77
2022/01/18 09:48:31;;;;;;;12.73;3.85;;;6.10;99.90;;;;;;4957399;28;20090;-75
2022/01/18 09:50:59;;;;;;;15.52;4.72;;;6.20;99.90;;;;;;4956664;28;20046;-79
2022/01/18 09:53:25;;;;;;;16.77;4.00;;;6.10;99.90;;;;;;4955999;29;20047;-78
2022/01/18 09:55:53;;;;;;;19.73;4.70;;;6.20;99.90;;;;;;4954948;28;20043;-79
2022/01/18 09:58:19;;;;;;;13.68;4.28;;;6.20;99.90;;;;;;4955258;29;20384;-78
2022/01/18 10:00:46;;;;;;;14.27;4.30;;;6.10;99.90;;;;;;4939168;29;20155;-78
2022/01/18 10:03:41;;;;;;;15.73;4.15;;;6.20;99.90;;;;;;4955231;29;20051;-79
2022/01/18 10:06:09;;;;;;;23.80;5.70;;;6.20;99.90;;;;;;4939078;29;20059;-79
2022/01/18 10:08:41;;;;;;;11.80;4.00;;;6.20;99.90;;;;;;4954728;29;20102;-79
2022/01/18 10:11:17;;;;;;;21.92;5.78;;;6.30;99.90;;;;;;4954811;28;20039;-79
2022/01/18 10:13:46;;;;;;;21.95;5.35;;;6.30;99.90;;;;;;4955296;29;20047;-80
2022/01/18 10:16:21;;;;;;;28.90;7.10;;;6.20;99.90;;;;;;4939263;29;20114;-79
2022/01/18 10:18:50;;;;;;;20.98;6.18;;;6.30;99.90;;;;;;4954864;29;20052;-79
2022/01/18 10:21:30;;;;;;;17.73;4.78;;;6.20;99.90;;;;;;4954918;28;20390;-78
2022/01/18 10:24:16;;;;;;;20.08;5.35;;;6.20;99.90;;;;;;4955911;29;20049;-78
2022/01/18 10:26:43;;;;;;;18.13;5.53;;;6.20;99.90;;;;;;4954661;29;20054;-80
2022/01/18 10:29:11;;;;;;;21.05;5.88;;;6.30;99.90;;;;;;4954542;29;20046;-79
2022/01/18 10:31:46;;;;;;;21.40;6.20;;;6.30;99.90;;;;;;4955589;28;20039;-79
2022/01/18 10:37:15;;;;;;;15.68;5.22;;;6.30;99.90;;;;;;4954250;28;20047;-78
2022/01/18 10:39:47;;;;;;;15.98;4.85;;;6.30;99.90;;;;;;4954322;29;20086;-79
2022/01/18 10:42:36;;;;;;;14.20;5.18;;;6.30;99.90;;;;;;4954173;28;20043;-77
2022/01/18 10:45:07;;;;;;;28.98;7.47;;;6.30;99.90;;;;;;4953945;28;20047;-77
2022/01/18 10:47:34;;;;;;;18.17;6.10;;;6.30;99.90;;;;;;4954288;29;20090;-80
2022/01/18 10:50:14;;;;;;;15.15;4.55;;;6.30;99.90;;;;;;4954187;29;20444;-78
2022/01/18 10:52:41;;;;;;;22.52;7.28;;;6.40;99.90;;;;;;4954276;29;20051;-79
2022/01/18 10:55:13;;;;;;;17.30;6.05;;;6.30;99.90;;;;;;4953967;29;20043;-80
2022/01/18 10:57:39;;;;;;;22.80;6.78;;;6.30;99.90;;;;;;4954034;29;20070;-79
2022/01/18 11:00:12;;;;;;;19.55;7.43;;;6.30;99.90;;;;;;4954660;29;20046;-78
2022/01/18 11:02:43;;;;;;;21.85;6.25;;;6.30;99.90;;;;;;4951036;28;20050;-80
2022/01/18 11:05:25;;;;;;;18.63;6.00;;;6.30;99.90;;;;;;4952945;29;20047;-77
2022/01/18 11:07:51;;;;;;;20.83;7.22;;;6.30;99.90;;;;;;4952359;28;20117;-77
2022/01/18 11:10:26;;;;;;;23.50;7.28;;;6.30;99.90;;;;;;4953323;28;20436;-77
2022/01/18 11:13:05;;;;;;;31.80;7.90;;;6.40;99.90;;;;;;4953529;29;20062;-77
2022/01/18 11:15:33;;;;;;;18.55;6.75;;;6.40;99.90;;;;;;4953444;29;20074;-79
2022/01/18 11:18:06;;;;;;;22.23;6.85;;;6.40;99.90;;;;;;4937335;29;20043;-79
2022/01/18 11:20:46;;;;;;;23.17;7.13;;;6.40;99.90;;;;;;4953390;28;20051;-78
2022/01/18 11:23:12;;;;;;;22.08;7.22;;;6.50;99.90;;;;;;4953438;29;20400;-79
2022/01/18 11:25:38;;;;;;;17.88;6.13;;;6.50;99.90;;;;;;4952379;29;20098;-80
2022/01/18 11:28:06;;;;;;;19.75;6.30;;;6.50;99.90;;;;;;4953530;29;20051;-79
2022/01/18 11:30:35;;;;;;;22.73;6.68;;;6.50;99.90;;;;;;4952898;28;20035;-77
2022/01/18 11:33:05;;;;;;;21.60;7.75;;;6.50;99.90;;;;;;4953517;28;20079;-77
2022/01/18 11:36:04;;;;;;;20.08;6.40;;;6.50;99.90;;;;;;4953073;29;20122;-80
2022/01/18 11:38:48;;;;;;;18.90;6.55;;;6.50;99.90;;;;;;4953100;28;20454;-77
2022/01/18 11:41:28;;;;;;;21.52;8.13;;;6.50;99.90;;;;;;4953410;28;20369;-78
2022/01/18 11:43:56;;;;;;;32.38;10.25;;;6.50;99.90;;;;;;4953382;29;20130;-77
2022/01/18 11:46:26;;;;;;;32.88;11.10;;;6.50;99.90;;;;;;4953475;28;20061;-79
2022/01/18 11:49:04;;;;;;;20.23;7.70;;;6.50;99.90;;;;;;4937124;28;20047;-79
2022/01/18 11:51:44;;;;;;;31.02;8.30;;;6.50;99.90;;;;;;4952921;28;20054;-79
2022/01/18 11:57:03;;;;;;;23.60;8.63;;;6.50;99.90;;;;;;4953453;29;20469;-80
2022/01/18 11:59:38;;;;;;;24.08;6.45;;;6.50;99.90;;;;;;4953250;29;20039;-80
2022/01/18 12:02:05;;;;;;;26.13;7.07;;;6.50;99.90;;;;;;4953347;28;20039;-79
2022/01/18 12:04:48;;;;;;;21.83;7.68;;;6.60;99.90;;;;;;4938186;29;20398;-80
2022/01/18 12:07:36;;;;;;;22.50;8.25;;;6.50;99.90;;;;;;4937439;29;20095;-81
2022/01/18 12:10:06;;;;;;;24.08;7.63;;;6.50;99.90;;;;;;4953433;28;20051;-80
2022/01/18 12:12:45;;;;;;;21.13;7.25;;;6.50;99.90;;;;;;4953650;28;20400;-83
2022/01/18 12:15:19;;;;;;;17.73;7.00;;;6.60;99.90;;;;;;4953371;28;20181;-81
2022/01/18 12:17:50;;;;;;;17.43;6.43;;;6.50;99.90;;;;;;4936006;28;20443;-81
2022/01/18 12:20:42;;;;;;;17.83;5.68;;;6.50;99.90;;;;;;4956159;28;20491;-83
2022/01/18 12:23:14;;;;;;;13.95;5.32;;;6.50;99.90;;;;;;4927342;29;20499;-81
2022/01/18 12:26:10;;;;;;;17.58;4.50;;;6.50;99.90;;;;;;4956638;29;20051;-81
2022/01/18 12:34:33;;;;;;;12.40;5.18;;;6.60;99.90;;;;;;4953729;29;20051;-81
2022/01/18 12:37:06;;;;;;;13.55;4.25;;;6.60;99.90;;;;;;4938791;28;20035;-80
2022/01/18 12:39:54;;;;;;;16.35;5.40;;;6.60;99.90;;;;;;4937795;29;20048;-82
2022/01/18 12:44:58;;;;;;;15.25;5.63;;;6.50;99.90;;;;;;4937182;29;20052;-82
2022/01/18 12:47:24;;;;;;;19.52;6.07;;;6.40;99.90;;;;;;4937664;29;20040;-83
2022/01/18 12:49:51;;;;;;;15.55;5.35;;;6.30;99.90;;;;;;4938308;29;20392;-81
2022/01/18 12:52:17;;;;;;;15.50;5.85;;;6.40;99.90;;;;;;4937369;29;20087;-81
2022/01/18 12:54:42;;;;;;;17.15;5.90;;;6.40;99.90;;;;;;4938698;29;20571;-82
2022/01/18 12:57:16;;;;;;;18.73;5.53;;;6.40;99.90;;;;;;4936813;29;20042;-81
2022/01/18 13:00:01;;;;;;;17.20;5.75;;;6.40;99.90;;;;;;4936915;29;20079;-80
2022/01/18 13:02:28;;;;;;;19.33;5.32;;;6.40;99.90;;;;;;4936771;29;20043;-82
2022/01/18 13:04:57;;;;;;;16.08;6.47;;;6.40;99.90;;;;;;4937356;29;20051;-83
2022/01/18 13:07:23;;;;;;;15.18;5.78;;;6.40;99.90;;;;;;4936919;29;20493;-80
2022/01/18 13:10:00;;;;;;;17.73;6.55;;;6.40;99.90;;;;;;4936427;29;20506;-79
2022/01/18 13:12:39;;;;;;;13.30;5.45;;;6.40;99.90;;;;;;4936599;29;20519;-80
2022/01/18 13:15:07;;;;;;;17.60;5.95;;;6.20;99.90;;;;;;4938149;29;20043;-81
2022/01/18 13:23:38;;;;;;;17.50;6.72;;;6.10;99.90;;;;;;4936554;29;20044;-80
2022/01/18 13:26:04;;;;;;;22.17;6.57;;;6.20;99.90;;;;;;4936964;29;20095;-80
2022/01/18 13:28:39;;;;;;;21.58;6.45;;;6.20;99.90;;;;;;4952436;28;20054;-80
2022/01/18 13:31:14;;;;;;;19.63;6.70;;;6.20;99.90;;;;;;4955295;28;20053;-79
2022/01/18 13:33:48;;;;;;;25.90;7.93;;;6.20;99.90;;;;;;4954717;29;20043;-79
2022/01/18 13:36:13;;;;;;;26.95;7.90;;;6.10;99.90;;;;;;4939998;29;20114;-79
2022/01/18 13:38:39;;;;;;;23.63;8.82;;;6.10;99.90;;;;;;4955393;29;20458;-79
2022/01/18 13:41:04;;;;;;;24.70;8.57;;;6.00;99.90;;;;;;4954952;28;20051;-81
2022/01/18 13:43:30;;;;;;;23.73;8.73;;;6.00;99.90;;;;;;4955389;29;20487;-82
2022/01/18 13:45:55;;;;;;;25.40;8.80;;;6.00;99.90;;;;;;4955384;29;20043;-81
2022/01/18 13:48:32;;;;;;;23.55;8.45;;;5.90;99.90;;;;;;4956255;28;20460;-81
2022/01/18 13:51:07;;;;;;;26.08;9.18;;;5.90;99.90;;;;;;4955085;28;20081;-80
2022/01/18 13:53:35;;;;;;;25.25;8.50;;;5.80;99.90;;;;;;4954978;29;20062;-81
2022/01/18 13:56:10;;;;;;;38.22;10.18;;;5.80;99.90;;;;;;4955573;29;20437;-80
2022/01/18 13:58:39;;;;;;;32.67;9.98;;;5.90;99.90;;;;;;4956700;29;20407;-83
2022/01/18 14:01:17;;;;;;;33.45;10.13;;;5.90;99.90;;;;;;4959277;28;20051;-75
2022/01/18 14:03:44;;;;;;;30.60;9.35;;;5.90;99.90;;;;;;4966356;29;20043;-80
2022/01/18 14:06:11;;;;;;;27.15;10.10;;;5.90;99.90;;;;;;4962405;29;20049;-78
2022/01/18 14:08:40;;;;;;;32.63;10.30;;;5.80;99.90;;;;;;4958846;29;20083;-79
2022/01/18 14:11:11;;;;;;;35.05;10.02;;;5.90;99.90;;;;;;4960129;28;20079;-82
2022/01/18 14:13:38;;;;;;;35.72;10.52;;;5.80;99.90;;;;;;4956304;29;20047;-82
2022/01/18 14:16:20;;;;;;;34.83;10.05;;;5.80;99.90;;;;;;4955822;29;20035;-81
2022/01/18 14:18:54;;;;;;;36.75;11.05;;;5.80;99.90;;;;;;4955688;29;20043;-79
2022/01/18 14:21:42;;;;;;;30.67;10.32;;;5.80;99.90;;;;;;4938836;29;20122;-78
2022/01/18 14:24:36;;;;;;;38.67;10.55;;;5.80;99.90;;;;;;4954744;29;20058;-80
2022/01/18 14:27:13;;;;;;;45.35;10.82;;;5.80;99.90;;;;;;4954639;29;20500;-82
2022/01/18 14:29:42;;;;;;;51.45;11.50;;;5.70;99.90;;;;;;4954929;29;20053;-82
2022/01/18 14:32:20;;;;;;;36.88;11.23;;;5.60;99.90;;;;;;4954613;28;20066;-80
2022/01/18 14:34:51;;;;;;;50.90;13.63;;;5.60;99.90;;;;;;4954533;29;20043;-78
2022/01/18 14:37:18;;;;;;;42.50;11.50;;;5.60;99.90;;;;;;4954554;29;20047;-80
2022/01/18 14:39:53;;;;;;;73.20;14.77;;;5.60;99.90;;;;;;4954620;29;20082;-80
2022/01/18 14:42:18;;;;;;;57.03;14.57;;;5.50;99.90;;;;;;4955687;28;20074;-78
2022/01/18 14:47:25;;;;;;;63.60;15.77;;;5.40;99.90;;;;;;4954456;29;20058;-78
2022/01/18 14:49:56;;;;;;;52.53;15.45;;;5.40;99.90;;;;;;4954184;29;20046;-79
2022/01/18 14:52:23;;;;;;;51.25;14.40;;;5.40;99.90;;;;;;4954151;28;20051;-81
2022/01/18 14:54:49;;;;;;;63.85;18.73;;;5.30;99.90;;;;;;4954411;29;20043;-79
2022/01/18 14:57:15;;;;;;;56.20;17.52;;;5.30;99.90;;;;;;4954197;29;20050;-81
2022/01/18 14:59:41;;;;;;;65.60;17.65;;;5.30;99.90;;;;;;4954116;29;20046;-80
2022/01/18 15:02:08;;;;;;;69.93;18.17;;;5.30;99.90;;;;;;4955155;28;20046;-80
2022/01/18 15:04:33;;;;;;;78.03;24.20;;;5.30;99.90;;;;;;4953998;29;20039;-81
2022/01/18 15:06:59;;;;;;;71.03;17.45;;;5.30;99.90;;;;;;4954005;29;20045;-80
2022/01/18 15:09:29;;;;;;;75.63;24.85;;;5.30;99.90;;;;;;4954042;29;20090;-79
2022/01/18 15:12:00;;;;;;;52.65;16.00;;;5.30;99.90;;;;;;4953815;28;20047;-82
2022/01/18 15:14:27;;;;;;;37.03;13.25;;;5.20;99.90;;;;;;4953814;29;20126;-80
2022/01/18 15:16:53;;;;;;;47.60;13.27;;;5.20;99.90;;;;;;4954260;29;20206;-80
2022/01/18 15:19:19;;;;;;;74.32;18.10;;;5.20;99.90;;;;;;4953639;29;20039;-79
2022/01/18 15:21:44;;;;;;;52.47;15.63;;;5.10;99.90;;;;;;4954009;28;20114;-80
2022/01/18 15:24:10;;;;;;;55.20;15.05;;;5.10;99.90;;;;;;4953728;29;20043;-80
2022/01/18 15:26:36;;;;;;;70.80;22.35;;;5.10;99.90;;;;;;4953665;29;20470;-79
2022/01/18 15:29:01;;;;;;;82.65;18.50;;;5.10;99.90;;;;;;4953724;29;20062;-79
2022/01/18 15:31:27;;;;;;;70.15;17.40;;;5.10;99.90;;;;;;4953587;28;20179;-79
2022/01/18 15:33:52;;;;;;;62.60;17.45;;;5.10;99.90;;;;;;4953505;29;20143;-79
2022/01/18 15:36:18;;;;;;;63.70;14.57;;;5.00;99.90;;;;;;4953648;29;20126;-80
2022/01/18 15:38:44;;;;;;;48.80;19.02;;;4.90;99.90;;;;;;4937574;29;20050;-80
2022/01/18 15:41:10;;;;;;;82.50;31.92;;;4.90;99.90;;;;;;4954763;28;20047;-79
2022/01/18 15:43:36;;;;;;;90.00;21.38;;;4.90;99.90;;;;;;4953076;29;20047;-81
2022/01/18 15:46:02;;;;;;;41.47;13.35;;;4.80;99.90;;;;;;4953591;29;20050;-79
2022/01/18 15:48:31;;;;;;;39.25;12.77;;;4.70;99.90;;;;;;4953741;29;20118;-80
2022/01/18 15:50:57;;;;;;;64.70;12.25;;;4.60;99.90;;;;;;4953383;28;20082;-78
2022/01/18 15:53:23;;;;;;;58.15;12.02;;;4.50;99.90;;;;;;4954170;28;20440;-80
2022/01/18 15:55:49;;;;;;;92.55;13.00;;;4.40;99.90;;;;;;4957176;29;20061;-79
2022/01/18 15:58:15;;;;;;;76.15;11.00;;;4.40;99.90;;;;;;4957273;29;20484;-81
2022/01/18 16:00:43;;;;;;;62.78;11.95;;;4.30;99.90;;;;;;4957156;28;20125;-82
2022/01/18 16:03:10;;;;;;;56.75;12.48;;;4.30;99.90;;;;;;4957324;29;20047;-79
2022/01/18 16:05:37;;;;;;;55.47;11.52;;;4.30;99.90;;;;;;4957325;29;20047;-81
2022/01/18 16:08:06;;;;;;;87.85;11.43;;;4.20;99.90;;;;;;4973299;28;20129;-79
2022/01/18 16:10:32;;;;;;;67.68;12.85;;;4.30;99.90;;;;;;4957114;28;20090;-79
2022/01/18 16:12:59;;;;;;;76.95;14.27;;;4.20;99.90;;;;;;4957081;29;20035;-80
2022/01/18 16:15:25;;;;;;;47.47;14.38;;;4.20;99.90;;;;;;4956255;29;20047;-80
2022/01/18 16:17:51;;;;;;;86.88;18.20;;;4.30;99.90;;;;;;4956483;29;20387;-79
2022/01/18 16:20:17;;;;;;;64.68;15.45;;;4.30;99.90;;;;;;4940053;28;20047;-78
2022/01/18 16:22:43;;;;;;;92.15;19.98;;;4.40;99.90;;;;;;4956008;29;20043;-79
2022/01/18 16:25:09;;;;;;;81.35;17.23;;;4.40;99.90;;;;;;4956477;29;20130;-80
2022/01/18 16:27:35;;;;;;;75.60;15.93;;;4.40;99.90;;;;;;4956265;29;20051;-78
2022/01/18 16:30:00;;;;;;;88.25;17.70;;;4.40;99.90;;;;;;4957430;29;20078;-78
2022/01/18 16:32:26;;;;;;;116.00;19.05;;;4.40;99.90;;;;;;4956021;28;20792;-78
2022/01/18 16:34:52;;;;;;;79.20;18.50;;;4.40;99.90;;;;;;4940068;29;20043;-78
2022/01/18 16:37:17;;;;;;;114.45;21.05;;;4.40;99.90;;;;;;4956002;29;20047;-79
2022/01/18 16:39:43;;;;;;;74.32;15.85;;;4.40;99.90;;;;;;4956242;29;20046;-78
2022/01/18 16:42:09;;;;;;;75.70;17.35;;;4.30;99.90;;;;;;4955985;28;20122;-78
2022/01/18 16:44:38;;;;;;;115.15;19.65;;;4.30;99.90;;;;;;4955961;29;20047;-80
2022/01/18 16:47:04;;;;;;;78.82;16.98;;;4.30;99.90;;;;;;4957211;29;20480;-77
2022/01/18 16:49:30;;;;;;;81.20;20.00;;;4.30;99.90;;;;;;4955640;29;20070;-80
2022/01/18 16:51:55;;;;;;;116.80;23.92;;;4.20;99.90;;;;;;4955632;28;20149;-79
2022/01/18 16:54:21;;;;;;;108.57;25.20;;;4.20;99.90;;;;;;4955589;29;20039;-80
2022/01/18 16:56:47;;;;;;;116.15;34.75;;;4.20;99.90;;;;;;4955673;29;20039;-77
2022/01/18 16:59:14;;;;;;;92.20;25.30;;;4.20;99.90;;;;;;4955752;29;20388;-77
2022/01/18 17:01:40;;;;;;;81.03;20.10;;;4.20;99.90;;;;;;4955336;28;20054;-78
2022/01/18 17:04:06;;;;;;;62.45;15.70;;;4.20;99.90;;;;;;4955319;28;20047;-78
2022/01/18 17:06:35;;;;;;;61.10;16.73;;;4.20;99.90;;;;;;4955633;29;20129;-79
2022/01/18 17:09:00;;;;;;;61.22;15.50;;;4.20;99.90;;;;;;4955726;29;20134;-79
2022/01/18 17:11:26;;;;;;;82.97;17.13;;;4.20;99.90;;;;;;4955066;28;20156;-79
2022/01/18 17:13:52;;;;;;;72.03;16.38;;;4.10;99.90;;;;;;4955364;29;20105;-78
2022/01/18 17:16:18;;;;;;;72.82;18.75;;;4.10;99.90;;;;;;4954967;29;20035;-79
2022/01/18 17:18:44;;;;;;;76.93;18.38;;;4.10;99.90;;;;;;4955029;29;20509;-79
2022/01/18 17:21:11;;;;;;;117.45;20.58;;;4.10;99.90;;;;;;4954952;28;20047;-79
2022/01/18 17:23:37;;;;;;;123.30;23.42;;;4.20;99.90;;;;;;4954727;29;20811;-78
2022/01/18 17:26:03;;;;;;;100.70;22.90;;;4.10;99.90;;;;;;4954778;29;20051;-79
2022/01/18 17:28:29;;;;;;;90.50;21.27;;;4.20;99.90;;;;;;4956489;29;20043;-79
2022/01/18 17:30:55;;;;;;;101.85;21.27;;;4.20;99.90;;;;;;4954575;28;20051;-80
2022/01/18 17:33:21;;;;;;;101.55;23.55;;;4.20;99.90;;;;;;4954512;29;20126;-80
2022/01/18 17:35:47;;;;;;;95.80;20.15;;;4.20;99.90;;;;;;4938332;29;20581;-79
2022/01/18 17:38:13;;;;;;;80.07;18.95;;;4.20;99.90;;;;;;4955622;28;20499;-81